Cherry Grove, Minnesota
Current Conditions -  °F | °C
As of 5:55 PM on Sunday 21 Dec 2014 (Local Time) from KFKA Reporting Station
Haze Haze  
Wind Chill: 24°   Ceiling: 400
Heat Index: 35°   Visibility: 5mi
Dew Point: 34°   Wind: 21mph
Humidity: 96%   Direction: 180°S
Pressure: 29.79"   Gusts: 31mph
Location:  43.662°N, 92.3356°W
Report Text: KFKA 212355Z AUTO 18018G27KT 5SM BR OVC004 02/01 A2979 RMK AO2 T00190013 10020 20015
Loading
Personal Weather Stations






























Interactive Weather Map New forecast layout! Learn more

10-Day Weather Forecast

Advertisements
Track Severe Weather on mobile